createdAt,value
2023-04-08T00:00:46.403Z,23.77
2023-04-08T00:01:46.434Z,23.78
2023-04-08T00:02:46.632Z,23.77
2023-04-08T00:03:46.618Z,23.77
2023-04-08T00:04:46.558Z,23.78
2023-04-08T00:05:46.586Z,23.78
2023-04-08T00:06:46.941Z,23.74
2023-04-08T00:07:46.669Z,23.77
2023-04-08T00:08:46.690Z,23.77
2023-04-08T00:09:46.725Z,23.78
2023-04-08T00:10:46.788Z,23.77
2023-04-08T00:11:46.820Z,23.75
2023-04-08T00:12:47.349Z,23.77
2023-04-08T00:13:46.874Z,23.72
2023-04-08T00:14:46.962Z,23.75
2023-04-08T00:15:47.007Z,23.74
2023-04-08T00:16:47.149Z,23.74
2023-04-08T00:17:47.064Z,23.74
2023-04-08T00:18:47.248Z,23.72
2023-04-08T00:19:47.173Z,23.74
2023-04-08T00:20:47.178Z,23.75
2023-04-08T00:21:47.226Z,23.74
2023-04-08T00:22:47.269Z,23.75
2023-04-08T00:23:47.288Z,23.72
2023-04-08T00:24:47.457Z,23.74
2023-04-08T00:25:47.411Z,23.71
2023-04-08T00:26:47.434Z,23.72
2023-04-08T00:27:47.481Z,23.74
2023-04-08T00:28:47.817Z,23.74
2023-04-08T00:29:47.540Z,23.72
2023-04-08T00:30:48.387Z,23.71
2023-04-08T00:31:47.645Z,23.74
2023-04-08T00:32:47.723Z,23.71
2023-04-08T00:33:47.744Z,23.72
2023-04-08T00:34:47.783Z,23.72
2023-04-08T00:35:47.901Z,23.71
2023-04-08T00:36:47.882Z,23.70
2023-04-08T00:37:47.966Z,23.71
2023-04-08T00:38:48.072Z,23.71
2023-04-08T00:39:48.008Z,23.71
2023-04-08T00:40:48.082Z,23.72
2023-04-08T00:41:48.133Z,23.70
2023-04-08T00:42:48.136Z,23.71
2023-04-08T00:43:48.205Z,23.70
2023-04-08T00:44:48.233Z,23.70
2023-04-08T00:45:48.263Z,23.71
2023-04-08T00:46:48.386Z,23.70
2023-04-08T00:47:48.365Z,23.70
2023-04-08T00:48:48.541Z,23.68
2023-04-08T00:49:48.448Z,23.71
2023-04-08T00:50:48.455Z,23.70
2023-04-08T00:51:48.533Z,23.67
2023-04-08T00:52:48.612Z,23.67
2023-04-08T00:53:48.615Z,23.67
2023-04-08T00:54:49.346Z,23.67
2023-04-08T00:55:48.701Z,23.67
2023-04-08T00:56:48.733Z,23.68
2023-04-08T00:57:48.798Z,23.67
2023-04-08T00:58:49.001Z,23.68
2023-04-08T00:59:48.878Z,23.70
2023-04-08T01:00:48.914Z,23.67
2023-04-08T01:01:49.086Z,23.67
2023-04-08T01:02:49.123Z,23.68
2023-04-08T01:03:49.179Z,23.64
2023-04-08T01:04:49.182Z,23.65
2023-04-08T01:05:49.267Z,23.65
2023-04-08T01:06:49.380Z,23.67
2023-04-08T01:07:49.396Z,23.65
2023-04-08T01:08:49.565Z,23.68
2023-04-08T01:09:49.334Z,23.68
2023-04-08T01:10:49.381Z,23.67
2023-04-08T01:11:49.432Z,23.68
2023-04-08T01:12:49.489Z,23.65
2023-04-08T01:13:49.545Z,23.64
2023-04-08T01:14:49.582Z,23.67
2023-04-08T01:15:49.699Z,23.62
2023-04-08T01:16:49.689Z,23.67
2023-04-08T01:17:49.772Z,23.64
2023-04-08T01:18:49.929Z,23.65
2023-04-08T01:19:49.834Z,23.67
2023-04-08T01:20:49.889Z,23.67
2023-04-08T01:21:49.968Z,23.65
2023-04-08T01:22:49.999Z,23.64
2023-04-08T01:23:50.039Z,23.64
2023-04-08T01:24:50.132Z,23.62
2023-04-08T01:25:50.135Z,23.64
2023-04-08T01:26:50.210Z,23.64
2023-04-08T01:27:50.242Z,23.62
2023-04-08T01:28:50.441Z,23.64
2023-04-08T01:29:50.356Z,23.65
2023-04-08T01:30:50.413Z,23.65
2023-04-08T01:31:50.463Z,23.64
2023-04-08T01:32:50.596Z,23.64
2023-04-08T01:33:50.569Z,23.67
2023-04-08T01:34:50.602Z,23.64
2023-04-08T01:35:50.661Z,23.64
2023-04-08T01:36:50.770Z,23.62
2023-04-08T01:37:50.815Z,23.64
2023-04-08T01:38:51.084Z,23.65
2023-04-08T01:39:50.868Z,23.64
2023-04-08T01:40:50.956Z,23.62
2023-04-08T01:41:50.997Z,23.64
2023-04-08T01:42:51.094Z,23.61
2023-04-08T01:43:51.093Z,23.61
2023-04-08T01:44:51.126Z,23.62
2023-04-08T01:45:51.168Z,23.62
2023-04-08T01:46:51.321Z,23.64
2023-04-08T01:47:51.397Z,23.62
2023-04-08T01:48:51.598Z,23.61
2023-04-08T01:49:51.428Z,23.61
2023-04-08T01:50:51.481Z,23.61
2023-04-08T01:51:51.486Z,23.60
2023-04-08T01:52:51.557Z,23.62
2023-04-08T01:53:58.403Z,23.60
2023-04-08T01:54:51.595Z,23.61
2023-04-08T01:55:51.599Z,23.60
2023-04-08T01:56:51.565Z,23.60
2023-04-08T01:57:51.640Z,23.60
2023-04-08T01:58:51.697Z,23.61
2023-04-08T01:59:51.556Z,23.62
2023-04-08T02:00:51.569Z,23.58
2023-04-08T02:01:51.675Z,23.62
2023-04-08T02:02:52.629Z,23.58
2023-04-08T02:03:51.606Z,23.61
2023-04-08T02:04:51.764Z,23.62
2023-04-08T02:05:51.568Z,23.60
2023-04-08T02:06:51.538Z,23.62
2023-04-08T02:07:51.548Z,23.61
2023-04-08T02:08:51.656Z,23.58
2023-04-08T02:09:51.540Z,23.60
2023-04-08T02:10:51.491Z,23.57
2023-04-08T02:11:51.459Z,23.60
2023-04-08T02:12:51.489Z,23.60
2023-04-08T02:13:51.509Z,23.57
2023-04-08T02:14:51.489Z,23.58
2023-04-08T02:15:51.495Z,23.58
2023-04-08T02:16:51.529Z,23.58
2023-04-08T02:17:51.470Z,23.61
2023-04-08T02:18:51.557Z,23.57
2023-04-08T02:19:51.504Z,23.58
2023-04-08T02:20:51.534Z,23.58
2023-04-08T02:21:51.593Z,23.58
2023-04-08T02:22:51.664Z,23.57
2023-04-08T02:23:51.834Z,23.58
2023-04-08T02:24:51.776Z,23.60
2023-04-08T02:25:52.389Z,23.57
2023-04-08T02:26:51.917Z,23.60
2023-04-08T02:27:51.952Z,23.58
2023-04-08T02:28:52.111Z,23.58
2023-04-08T02:29:52.052Z,23.56
2023-04-08T02:30:52.128Z,23.58
2023-04-08T02:31:52.175Z,23.56
2023-04-08T02:32:52.226Z,23.56
2023-04-08T02:33:52.906Z,23.57
2023-04-08T02:34:52.311Z,23.57
2023-04-08T02:35:52.417Z,23.58
2023-04-08T02:36:52.450Z,23.57
2023-04-08T02:37:52.506Z,23.58
2023-04-08T02:38:52.798Z,23.54
2023-04-08T02:39:52.589Z,23.56
2023-04-08T02:40:52.664Z,23.56
2023-04-08T02:41:52.730Z,23.54
2023-04-08T02:42:52.802Z,23.56
2023-04-08T02:43:52.972Z,23.57
2023-04-08T02:44:52.895Z,23.56
2023-04-08T02:45:52.993Z,23.56
2023-04-08T02:46:53.029Z,23.54
2023-04-08T02:47:53.078Z,23.54
2023-04-08T02:48:53.127Z,23.56
2023-04-08T02:49:53.187Z,23.56
2023-04-08T02:50:53.276Z,23.56
2023-04-08T02:51:53.328Z,23.57
2023-04-08T02:52:53.398Z,23.54
2023-04-08T02:53:53.413Z,23.56
2023-04-08T02:54:53.486Z,23.54
2023-04-08T02:55:53.556Z,23.53
2023-04-08T02:56:53.566Z,23.54
2023-04-08T02:57:53.635Z,23.53
2023-04-08T02:58:53.714Z,23.56
2023-04-08T02:59:53.780Z,23.54
2023-04-08T03:00:53.810Z,23.53
2023-04-08T03:01:53.941Z,23.51
2023-04-08T03:02:54.199Z,23.56
2023-04-08T03:03:54.140Z,23.56
2023-04-08T03:04:54.073Z,23.54
2023-04-08T03:05:54.109Z,23.53
2023-04-08T03:06:54.166Z,23.54
2023-04-08T03:07:54.238Z,23.54
2023-04-08T03:08:54.278Z,23.51
2023-04-08T03:09:54.328Z,23.53
2023-04-08T03:10:54.390Z,23.54
2023-04-08T03:11:54.468Z,23.56
2023-04-08T03:12:54.539Z,23.50
2023-04-08T03:13:54.603Z,23.54
2023-04-08T03:14:54.619Z,23.53
2023-04-08T03:15:54.712Z,23.53
2023-04-08T03:16:54.772Z,23.51
2023-04-08T03:17:54.792Z,23.53
2023-04-08T03:18:54.882Z,23.54
2023-04-08T03:19:54.917Z,23.53
2023-04-08T03:20:54.959Z,23.54
2023-04-08T03:21:55.001Z,23.51
2023-04-08T03:22:55.093Z,23.51
2023-04-08T03:23:56.925Z,23.54
2023-04-08T03:24:55.227Z,23.53
2023-04-08T03:25:55.252Z,23.51
2023-04-08T03:26:55.291Z,23.51
2023-04-08T03:27:55.363Z,23.51
2023-04-08T03:28:55.442Z,23.54
2023-04-08T03:29:55.479Z,23.53
2023-04-08T03:30:55.510Z,23.50
2023-04-08T03:31:55.808Z,23.50
2023-04-08T03:32:55.943Z,23.54
2023-04-08T03:33:55.771Z,23.49
2023-04-08T03:34:55.753Z,23.51
2023-04-08T03:35:55.876Z,23.51
2023-04-08T03:36:55.899Z,23.50
2023-04-08T03:37:55.935Z,23.53
2023-04-08T03:38:56.014Z,23.53
2023-04-08T03:39:56.042Z,23.50
2023-04-08T03:40:56.966Z,23.50
2023-04-08T03:41:56.196Z,23.53
2023-04-08T03:42:56.272Z,23.51
2023-04-08T03:43:56.273Z,23.49
2023-04-08T03:44:56.390Z,23.51
2023-04-08T03:45:56.431Z,23.51
2023-04-08T03:46:56.483Z,23.50
2023-04-08T03:47:56.564Z,23.51
2023-04-08T03:48:56.588Z,23.51
2023-04-08T03:49:56.645Z,23.49
2023-04-08T03:50:56.693Z,23.49
2023-04-08T03:51:56.777Z,23.51
2023-04-08T03:52:56.927Z,23.49
2023-04-08T03:53:56.876Z,23.50
2023-04-08T03:54:56.934Z,23.49
2023-04-08T03:55:56.983Z,23.51
2023-04-08T03:56:57.067Z,23.49
2023-04-08T03:57:57.148Z,23.47
2023-04-08T03:58:57.151Z,23.49
2023-04-08T03:59:57.228Z,23.50
2023-04-08T04:00:57.278Z,23.51
2023-04-08T04:01:57.386Z,23.49
2023-04-08T04:02:57.522Z,23.49
2023-04-08T04:03:57.675Z,23.49
2023-04-08T04:04:57.588Z,23.49
2023-04-08T04:05:57.586Z,23.50
2023-04-08T04:06:57.633Z,23.53
2023-04-08T04:07:57.886Z,23.46
2023-04-08T04:08:57.751Z,23.47
2023-04-08T04:09:57.808Z,23.47
2023-04-08T04:10:57.878Z,23.46
2023-04-08T04:11:57.919Z,23.46
2023-04-08T04:12:57.978Z,23.47
2023-04-08T04:13:58.046Z,23.49
2023-04-08T04:14:58.131Z,23.47
2023-04-08T04:15:58.232Z,23.49
2023-04-08T04:16:58.232Z,23.44
2023-04-08T04:17:58.306Z,23.46
2023-04-08T04:18:58.334Z,23.47
2023-04-08T04:19:58.394Z,23.47
2023-04-08T04:20:58.438Z,23.47
2023-04-08T04:21:58.509Z,23.47
2023-04-08T04:22:58.562Z,23.47
2023-04-08T04:23:58.617Z,23.49
2023-04-08T04:24:58.704Z,23.47
2023-04-08T04:25:58.711Z,23.47
2023-04-08T04:26:58.778Z,23.49
2023-04-08T04:27:58.846Z,23.47
2023-04-08T04:28:58.859Z,23.46
2023-04-08T04:30:01.461Z,23.50
2023-04-08T04:30:59.151Z,23.46
2023-04-08T04:31:59.175Z,23.47
2023-04-08T04:32:59.476Z,23.46
2023-04-08T04:33:59.276Z,23.47
2023-04-08T04:34:59.296Z,23.46
2023-04-08T04:35:59.386Z,23.47
2023-04-08T04:36:59.426Z,23.47
2023-04-08T04:37:59.445Z,23.46
2023-04-08T04:38:59.514Z,23.46
2023-04-08T04:39:59.589Z,23.49
2023-04-08T04:40:59.608Z,23.47
2023-04-08T04:41:59.685Z,23.46
2023-04-08T04:42:59.756Z,23.47
2023-04-08T04:43:59.762Z,23.43
2023-04-08T04:45:00.494Z,23.46
2023-04-08T04:45:59.932Z,23.43
2023-04-08T04:46:59.943Z,23.44
2023-04-08T04:48:00.103Z,23.46
2023-04-08T04:49:00.101Z,23.44
2023-04-08T04:50:00.956Z,23.43
2023-04-08T04:51:00.217Z,23.46
2023-04-08T04:52:00.221Z,23.44
2023-04-08T04:53:00.261Z,23.44
2023-04-08T04:54:00.329Z,23.46
2023-04-08T04:55:00.406Z,23.44
2023-04-08T04:56:00.475Z,23.44
2023-04-08T04:57:00.568Z,23.46
2023-04-08T04:58:00.961Z,23.44
2023-04-08T04:59:00.674Z,23.46
2023-04-08T05:00:01.763Z,23.44
2023-04-08T05:01:00.764Z,23.43
2023-04-08T05:02:00.886Z,23.44
2023-04-08T05:03:00.984Z,23.43
2023-04-08T05:04:00.927Z,23.43
2023-04-08T05:05:01.001Z,23.43
2023-04-08T05:06:01.025Z,23.44
2023-04-08T05:07:01.086Z,23.41
2023-04-08T05:08:01.458Z,23.41
2023-04-08T05:09:01.170Z,23.44
2023-04-08T05:10:01.225Z,23.43
2023-04-08T05:11:01.311Z,23.43
2023-04-08T05:12:01.370Z,23.44
2023-04-08T05:13:01.556Z,23.46
2023-04-08T05:14:01.463Z,23.43
2023-04-08T05:15:01.528Z,23.44
2023-04-08T05:16:01.640Z,23.43
2023-04-08T05:17:01.604Z,23.43
2023-04-08T05:18:01.691Z,23.43
2023-04-08T05:19:01.705Z,23.43
2023-04-08T05:20:01.796Z,23.41
2023-04-08T05:21:01.916Z,23.41
2023-04-08T05:22:01.923Z,23.41
2023-04-08T05:23:01.972Z,23.40
2023-04-08T05:24:02.012Z,23.44
2023-04-08T05:25:02.029Z,23.41
2023-04-08T05:26:02.098Z,23.41
2023-04-08T05:27:02.168Z,23.41
2023-04-08T05:28:02.193Z,23.44
2023-04-08T05:29:02.283Z,23.41
2023-04-08T05:30:02.281Z,23.41
2023-04-08T05:31:02.401Z,23.41
2023-04-08T05:32:02.388Z,23.43
2023-04-08T05:33:02.492Z,23.41
2023-04-08T05:34:02.460Z,23.44
2023-04-08T05:35:02.489Z,23.43
2023-04-08T05:36:02.582Z,23.41
2023-04-08T05:37:02.659Z,23.43
2023-04-08T05:38:02.629Z,23.44
2023-04-08T05:39:03.491Z,23.41
2023-04-08T05:40:02.719Z,23.41
2023-04-08T05:41:02.733Z,23.41
2023-04-08T05:42:02.810Z,23.41
2023-04-08T05:43:02.888Z,23.43
2023-04-08T05:44:02.843Z,23.41
2023-04-08T05:45:02.920Z,23.40
2023-04-08T05:46:03.018Z,23.40
2023-04-08T05:47:03.032Z,23.44
2023-04-08T05:48:03.101Z,23.41
2023-04-08T05:49:03.075Z,23.44
2023-04-08T05:50:03.108Z,23.41
2023-04-08T05:51:03.184Z,23.41
2023-04-08T05:52:03.200Z,23.41
2023-04-08T05:53:03.246Z,23.44
2023-04-08T05:54:03.373Z,23.44
2023-04-08T05:55:03.369Z,23.41
2023-04-08T05:56:03.440Z,23.43
2023-04-08T05:57:03.423Z,23.43
2023-04-08T05:58:04.503Z,23.41
2023-04-08T05:59:03.981Z,23.43
2023-04-08T06:00:03.537Z,23.41
2023-04-08T06:01:03.603Z,23.41
2023-04-08T06:02:03.733Z,23.39
2023-04-08T06:03:03.949Z,23.44
2023-04-08T06:04:03.914Z,23.41
2023-04-08T06:05:03.847Z,23.41
2023-04-08T06:06:03.758Z,23.41
2023-04-08T06:07:03.829Z,23.41
2023-04-08T06:08:03.887Z,23.44
2023-04-08T06:09:03.899Z,23.41
2023-04-08T06:10:03.972Z,23.41
2023-04-08T06:11:04.039Z,23.43
2023-04-08T06:12:04.058Z,23.41
2023-04-08T06:13:04.132Z,23.43
2023-04-08T06:14:04.208Z,23.43
2023-04-08T06:15:04.226Z,23.46
2023-04-08T06:16:04.275Z,23.44
2023-04-08T06:17:04.398Z,23.43
2023-04-08T06:18:04.351Z,23.41
2023-04-08T06:19:04.405Z,23.41
2023-04-08T06:20:04.450Z,23.44
2023-04-08T06:21:04.495Z,23.43
2023-04-08T06:22:04.564Z,23.41
2023-04-08T06:23:04.613Z,23.46
2023-04-08T06:24:04.716Z,23.46
2023-04-08T06:25:04.719Z,23.43
2023-04-08T06:26:04.739Z,23.44
2023-04-08T06:27:05.053Z,23.47
2023-04-08T06:28:05.509Z,23.44
2023-04-08T06:29:04.912Z,23.47
2023-04-08T06:30:04.962Z,23.47
2023-04-08T06:31:05.030Z,23.47
2023-04-08T06:32:05.141Z,23.49
2023-04-08T06:33:05.209Z,23.50
2023-04-08T06:34:05.237Z,23.49
2023-04-08T06:35:05.269Z,23.49
2023-04-08T06:36:05.391Z,23.47
2023-04-08T06:37:06.007Z,23.49
2023-04-08T06:38:05.467Z,23.50
2023-04-08T06:39:05.546Z,23.49
2023-04-08T06:40:05.622Z,23.49
2023-04-08T06:41:05.914Z,23.49
2023-04-08T06:42:05.660Z,23.49
2023-04-08T06:43:05.719Z,23.51
2023-04-08T06:44:05.795Z,23.50
2023-04-08T06:45:05.824Z,23.53
2023-04-08T06:46:05.941Z,23.51
2023-04-08T06:47:05.951Z,23.51
2023-04-08T06:48:06.036Z,23.54
2023-04-08T06:49:06.040Z,23.56
2023-04-08T06:50:06.211Z,23.56
2023-04-08T06:51:06.176Z,23.57
2023-04-08T06:52:06.248Z,23.56
2023-04-08T06:53:06.308Z,23.54
2023-04-08T06:54:06.472Z,23.57
2023-04-08T06:55:06.456Z,23.57
2023-04-08T06:56:06.482Z,23.57
2023-04-08T06:57:07.603Z,23.60
2023-04-08T06:58:07.025Z,23.58
2023-04-08T06:59:06.662Z,23.58
2023-04-08T07:00:06.745Z,23.58
2023-04-08T07:01:06.794Z,23.60
2023-04-08T07:02:06.837Z,23.60
2023-04-08T07:03:06.943Z,23.61
2023-04-08T07:04:07.123Z,23.57
2023-04-08T07:05:07.031Z,23.62
2023-04-08T07:06:07.028Z,23.61
2023-04-08T07:07:07.078Z,23.64
2023-04-08T07:08:07.147Z,23.65
2023-04-08T07:09:07.209Z,23.65
2023-04-08T07:10:08.781Z,23.65
2023-04-08T07:11:07.258Z,23.65
2023-04-08T07:12:07.225Z,23.68
2023-04-08T07:13:07.263Z,23.71
2023-04-08T07:14:07.264Z,23.68
2023-04-08T07:15:07.250Z,23.68
2023-04-08T07:16:07.206Z,23.71
2023-04-08T07:17:07.236Z,23.70
2023-04-08T07:18:07.198Z,23.70
2023-04-08T07:19:07.211Z,23.70
2023-04-08T07:20:07.186Z,23.70
2023-04-08T07:21:07.200Z,23.71
2023-04-08T07:22:07.182Z,23.71
2023-04-08T07:23:07.172Z,23.70
2023-04-08T07:24:07.306Z,23.70
2023-04-08T07:25:07.217Z,23.72
2023-04-08T07:26:07.152Z,23.71
2023-04-08T07:27:07.115Z,23.70
2023-04-08T07:28:07.119Z,23.74
2023-04-08T07:29:07.163Z,23.71
2023-04-08T07:30:07.126Z,23.71
2023-04-08T07:31:07.112Z,23.72
2023-04-08T07:32:07.086Z,23.72
2023-04-08T07:33:07.114Z,23.71
2023-04-08T07:34:07.083Z,23.74
2023-04-08T07:35:07.108Z,23.74
2023-04-08T07:36:07.045Z,23.74
2023-04-08T07:37:07.026Z,23.74
2023-04-08T07:38:07.061Z,23.75
2023-04-08T07:39:07.022Z,23.77
2023-04-08T07:40:07.071Z,23.74
2023-04-08T07:41:07.010Z,23.77
2023-04-08T07:42:07.047Z,23.77
2023-04-08T07:43:07.050Z,23.77
2023-04-08T07:44:06.995Z,23.72
2023-04-08T07:45:06.980Z,23.72
2023-04-08T07:46:07.003Z,23.75
2023-04-08T07:47:07.100Z,23.77
2023-04-08T07:48:07.047Z,23.74
2023-04-08T07:49:06.984Z,23.77
2023-04-08T07:50:07.014Z,23.77
2023-04-08T07:51:09.981Z,23.77
2023-04-08T07:52:07.061Z,23.74
2023-04-08T07:53:08.258Z,23.75
2023-04-08T07:54:07.049Z,23.77
2023-04-08T07:55:07.045Z,23.74
2023-04-08T07:56:07.058Z,23.78
2023-04-08T07:57:07.063Z,23.75
2023-04-08T07:58:07.052Z,23.77
2023-04-08T07:59:07.073Z,23.74
2023-04-08T08:00:07.075Z,23.74
2023-04-08T08:01:08.004Z,23.74
2023-04-08T08:02:07.060Z,23.78
2023-04-08T08:03:07.092Z,23.75
2023-04-08T08:04:07.134Z,23.77
2023-04-08T08:05:07.029Z,23.74
2023-04-08T08:06:06.938Z,23.77
2023-04-08T08:07:06.984Z,23.75
2023-04-08T08:08:06.946Z,23.77
2023-04-08T08:09:06.981Z,23.75
2023-04-08T08:10:06.946Z,23.77
2023-04-08T08:11:06.953Z,23.77
2023-04-08T08:12:06.931Z,23.78
2023-04-08T08:13:06.978Z,23.78
2023-04-08T08:14:06.972Z,23.78
2023-04-08T08:15:06.928Z,23.80
2023-04-08T08:16:06.947Z,23.80
2023-04-08T08:17:07.052Z,23.81
2023-04-08T08:18:07.042Z,23.80
2023-04-08T08:19:07.064Z,23.80
2023-04-08T08:20:07.069Z,23.84
2023-04-08T08:21:07.119Z,23.84
2023-04-08T08:22:07.179Z,23.84
2023-04-08T08:23:07.246Z,23.84
2023-04-08T08:24:07.248Z,23.85
2023-04-08T08:25:07.321Z,23.88
2023-04-08T08:26:07.352Z,23.89
2023-04-08T08:27:07.366Z,23.89
2023-04-08T08:28:07.391Z,23.88
2023-04-08T08:29:07.482Z,23.89
2023-04-08T08:30:07.458Z,23.91
2023-04-08T08:31:07.577Z,23.91
2023-04-08T08:32:07.598Z,23.91
2023-04-08T08:33:07.606Z,23.94
2023-04-08T08:34:07.630Z,23.92
2023-04-08T08:35:07.633Z,23.92
2023-04-08T08:36:07.732Z,23.94
2023-04-08T08:37:07.708Z,23.95
2023-04-08T08:38:07.717Z,23.97
2023-04-08T08:39:07.849Z,23.97
2023-04-08T08:40:07.759Z,23.97
2023-04-08T08:41:07.824Z,23.97
2023-04-08T08:42:07.882Z,23.97
2023-04-08T08:43:08.539Z,23.99
2023-04-08T08:44:07.892Z,24.01
2023-04-08T08:45:07.894Z,24.04
2023-04-08T08:46:07.931Z,23.99
2023-04-08T08:47:07.952Z,24.04
2023-04-08T08:48:08.014Z,24.07
2023-04-08T08:49:07.992Z,24.02
2023-04-08T08:50:08.037Z,24.07
2023-04-08T08:51:08.131Z,24.04
2023-04-08T08:52:08.088Z,24.07
2023-04-08T08:53:08.144Z,24.05
2023-04-08T08:54:08.114Z,24.07
2023-04-08T08:55:27.005Z,24.07
2023-04-08T08:57:08.152Z,24.09
2023-04-08T08:58:08.189Z,24.11
2023-04-08T08:59:08.134Z,24.12
2023-04-08T09:00:08.134Z,24.11
2023-04-08T09:01:08.307Z,24.13
2023-04-08T09:02:08.194Z,24.13
2023-04-08T09:03:08.292Z,24.15
2023-04-08T09:04:08.430Z,24.15
2023-04-08T09:05:08.247Z,24.15
2023-04-08T09:06:09.859Z,24.18
2023-04-08T09:07:08.196Z,24.19
2023-04-08T09:08:08.164Z,24.19
2023-04-08T09:09:08.208Z,24.19
2023-04-08T09:10:08.193Z,24.19
2023-04-08T09:11:08.257Z,24.23
2023-04-08T09:12:08.227Z,24.23
2023-04-08T09:13:08.218Z,24.23
2023-04-08T09:14:08.216Z,24.25
2023-04-08T09:15:08.351Z,24.25
2023-04-08T09:16:08.253Z,24.25
2023-04-08T09:17:08.276Z,24.29
2023-04-08T09:18:08.369Z,24.28
2023-04-08T09:19:08.405Z,24.29
2023-04-08T09:20:08.402Z,24.29
2023-04-08T09:21:08.559Z,24.29
2023-04-08T09:22:08.316Z,24.30
2023-04-08T09:23:08.471Z,24.32
2023-04-08T09:24:08.338Z,24.32
2023-04-08T09:25:08.365Z,24.32
2023-04-08T09:26:08.435Z,24.33
2023-04-08T09:27:08.407Z,24.35
2023-04-08T09:28:08.346Z,24.35
2023-04-08T09:29:24.957Z,24.36
2023-04-08T09:30:09.427Z,24.36
2023-04-08T09:31:08.376Z,24.39
2023-04-08T09:32:08.388Z,24.36
2023-04-08T09:33:09.127Z,24.39
2023-04-08T09:34:09.080Z,24.39
2023-04-08T09:35:08.344Z,24.39
2023-04-08T09:36:09.112Z,24.42
2023-04-08T09:37:08.318Z,24.38
2023-04-08T09:38:08.331Z,24.39
2023-04-08T09:39:08.297Z,24.43
2023-04-08T09:40:08.339Z,24.42
2023-04-08T09:41:08.319Z,24.42
2023-04-08T09:42:08.302Z,24.42
2023-04-08T09:43:09.044Z,24.42
2023-04-08T09:44:08.365Z,24.43
2023-04-08T09:45:08.258Z,24.46
2023-04-08T09:46:08.361Z,24.46
2023-04-08T09:47:08.274Z,24.43
2023-04-08T09:48:08.276Z,24.44
2023-04-08T09:49:08.290Z,24.43
2023-04-08T09:50:08.247Z,24.40
2023-04-08T09:51:08.304Z,24.39
2023-04-08T09:52:08.249Z,24.43
2023-04-08T09:53:08.207Z,24.39
2023-04-08T09:54:08.177Z,24.40
2023-04-08T09:55:08.202Z,24.42
2023-04-08T09:56:08.216Z,24.40
2023-04-08T09:57:08.170Z,24.40
2023-04-08T09:58:08.217Z,24.38
2023-04-08T09:59:08.160Z,24.36
2023-04-08T10:00:08.200Z,24.39
2023-04-08T10:01:08.242Z,24.36
2023-04-08T10:02:08.234Z,24.35
2023-04-08T10:03:09.321Z,24.33
2023-04-08T10:04:08.168Z,24.33
2023-04-08T10:05:08.549Z,24.33
2023-04-08T10:06:08.128Z,24.35
2023-04-08T10:07:08.117Z,24.33
2023-04-08T10:08:08.099Z,24.36
2023-04-08T10:09:08.097Z,24.35
2023-04-08T10:10:08.136Z,24.35
2023-04-08T10:11:08.616Z,24.35
2023-04-08T10:12:09.065Z,24.33
2023-04-08T10:13:08.067Z,24.32
2023-04-08T10:14:08.072Z,24.33
2023-04-08T10:15:08.068Z,24.36
2023-04-08T10:16:08.238Z,24.35
2023-04-08T10:17:08.074Z,24.32
2023-04-08T10:18:08.230Z,24.38
2023-04-08T10:19:08.016Z,24.35
2023-04-08T10:20:08.051Z,24.33
2023-04-08T10:21:08.050Z,24.35
2023-04-08T10:22:08.182Z,24.33
2023-04-08T10:23:08.073Z,24.35
2023-04-08T10:24:08.082Z,24.35
2023-04-08T10:25:08.116Z,24.35
2023-04-08T10:26:08.100Z,24.33
2023-04-08T10:27:08.127Z,24.33
2023-04-08T10:28:08.560Z,24.32
2023-04-08T10:29:08.119Z,24.30
2023-04-08T10:30:08.126Z,24.28
2023-04-08T10:31:08.154Z,24.28
2023-04-08T10:32:08.224Z,24.26
2023-04-08T10:33:08.194Z,24.29
2023-04-08T10:34:08.198Z,24.29
2023-04-08T10:35:08.201Z,24.25
2023-04-08T10:36:08.240Z,24.28
2023-04-08T10:37:08.282Z,24.29
2023-04-08T10:38:08.234Z,24.26
2023-04-08T10:39:08.242Z,24.26
2023-04-08T10:40:08.277Z,24.28
2023-04-08T10:41:09.063Z,24.28
2023-04-08T10:42:08.269Z,24.25
2023-04-08T10:43:09.196Z,24.23
2023-04-08T10:44:08.348Z,24.22
2023-04-08T10:45:10.103Z,24.23
2023-04-08T10:46:08.360Z,24.23
2023-04-08T10:47:08.426Z,24.22
2023-04-08T10:48:09.074Z,24.22
2023-04-08T10:49:08.362Z,24.23
2023-04-08T10:50:08.487Z,24.23
2023-04-08T10:51:08.424Z,24.22
2023-04-08T10:52:08.465Z,24.21
2023-04-08T10:53:08.489Z,24.25
2023-04-08T10:54:15.138Z,24.29
2023-04-08T10:55:08.457Z,24.22
2023-04-08T10:56:08.450Z,24.25
2023-04-08T10:57:08.594Z,24.23
2023-04-08T10:58:08.410Z,24.22
2023-04-08T10:59:08.401Z,24.18
2023-04-08T11:00:08.410Z,24.19
2023-04-08T11:01:08.523Z,24.18
2023-04-08T11:02:08.515Z,24.16
2023-04-08T11:03:08.613Z,24.15
2023-04-08T11:04:08.455Z,24.16
2023-04-08T11:05:08.352Z,24.16
2023-04-08T11:06:08.531Z,24.15
2023-04-08T11:07:08.434Z,24.12
2023-04-08T11:08:08.343Z,24.13
2023-04-08T11:09:08.346Z,24.15
2023-04-08T11:10:08.465Z,24.13
2023-04-08T11:11:08.352Z,24.13
2023-04-08T11:12:08.333Z,24.12
2023-04-08T11:13:09.081Z,24.16
2023-04-08T11:14:08.330Z,24.12
2023-04-08T11:15:08.303Z,24.13
2023-04-08T11:16:17.744Z,24.13
2023-04-08T11:17:09.286Z,24.11
2023-04-08T11:18:08.364Z,24.11
2023-04-08T11:19:08.303Z,24.11
2023-04-08T11:20:08.269Z,24.12
2023-04-08T11:21:08.274Z,24.11
2023-04-08T11:22:08.276Z,24.11
2023-04-08T11:23:08.261Z,24.11
2023-04-08T11:24:08.339Z,24.13
2023-04-08T11:25:08.220Z,24.12
2023-04-08T11:26:08.265Z,24.15
2023-04-08T11:27:08.221Z,24.09
2023-04-08T11:28:08.183Z,24.16
2023-04-08T11:29:08.187Z,24.16
2023-04-08T11:30:08.177Z,24.13
2023-04-08T11:31:08.217Z,24.13
2023-04-08T11:32:08.221Z,24.12
2023-04-08T11:33:08.261Z,24.13
2023-04-08T11:34:08.227Z,24.16
2023-04-08T11:35:08.175Z,24.15
2023-04-08T11:36:08.452Z,24.16
2023-04-08T11:37:08.275Z,24.18
2023-04-08T11:38:10.070Z,24.15
2023-04-08T11:39:08.269Z,24.21
2023-04-08T11:40:08.316Z,24.15
2023-04-08T11:41:08.320Z,24.18
2023-04-08T11:42:08.353Z,24.16
2023-04-08T11:43:08.372Z,24.21
2023-04-08T11:44:08.355Z,24.19
2023-04-08T11:45:08.407Z,24.19
2023-04-08T11:46:08.458Z,24.21
2023-04-08T11:47:08.448Z,24.18
2023-04-08T11:48:08.544Z,24.19
2023-04-08T11:49:08.650Z,24.18
2023-04-08T11:50:08.516Z,24.18
2023-04-08T11:51:08.523Z,24.21
2023-04-08T11:52:08.557Z,24.22
2023-04-08T11:53:08.596Z,24.23
2023-04-08T11:54:08.593Z,24.26
2023-04-08T11:55:08.613Z,24.30
2023-04-08T11:56:08.624Z,24.29
2023-04-08T11:57:08.701Z,24.28
2023-04-08T11:58:08.669Z,24.29
2023-04-08T11:59:08.629Z,24.32
2023-04-08T12:00:08.651Z,24.32
2023-04-08T12:01:08.717Z,24.33
2023-04-08T12:02:08.712Z,24.35
2023-04-08T12:03:08.767Z,24.33
2023-04-08T12:04:08.829Z,24.36
2023-04-08T12:05:08.817Z,24.38
2023-04-08T12:06:08.813Z,24.39
2023-04-08T12:07:08.697Z,24.36
2023-04-08T12:08:08.724Z,24.36
2023-04-08T12:09:08.712Z,24.38
2023-04-08T12:10:08.738Z,24.39
2023-04-08T12:11:19.243Z,24.42
2023-04-08T12:12:09.742Z,24.42
2023-04-08T12:13:08.729Z,24.40
2023-04-08T12:14:08.704Z,24.38
2023-04-08T12:15:08.729Z,24.38
2023-04-08T12:16:08.717Z,24.38
2023-04-08T12:17:08.712Z,24.40
2023-04-08T12:18:08.807Z,24.44
2023-04-08T12:19:08.698Z,24.39
2023-04-08T12:20:08.686Z,24.39
2023-04-08T12:21:08.677Z,24.39
2023-04-08T12:22:08.636Z,24.39
2023-04-08T12:23:08.662Z,24.38
2023-04-08T12:24:08.628Z,24.39
2023-04-08T12:25:08.622Z,24.40
2023-04-08T12:26:08.602Z,24.40
2023-04-08T12:27:08.617Z,24.39
2023-04-08T12:28:08.605Z,24.39
2023-04-08T12:29:08.594Z,24.38
2023-04-08T12:30:08.597Z,24.36
2023-04-08T12:31:08.637Z,24.38
2023-04-08T12:32:08.579Z,24.38
2023-04-08T12:33:08.613Z,24.36
2023-04-08T12:34:08.581Z,24.36
2023-04-08T12:35:08.574Z,24.35
2023-04-08T12:36:08.603Z,24.36
2023-04-08T12:37:08.531Z,24.32
2023-04-08T12:38:08.589Z,24.36
2023-04-08T12:39:08.548Z,24.33
2023-04-08T12:40:08.564Z,24.32
2023-04-08T12:41:08.486Z,24.33
2023-04-08T12:42:08.497Z,24.33
2023-04-08T12:43:08.532Z,24.29
2023-04-08T12:44:08.490Z,24.35
2023-04-08T12:45:08.468Z,24.38
2023-04-08T12:46:08.472Z,24.33
2023-04-08T12:47:08.622Z,24.32
2023-04-08T12:48:08.583Z,24.35
2023-04-08T12:49:08.907Z,24.33
2023-04-08T12:50:08.470Z,24.33
2023-04-08T12:51:08.474Z,24.33
2023-04-08T12:52:08.528Z,24.32
2023-04-08T12:53:08.509Z,24.35
2023-04-08T12:54:08.477Z,24.29